sensor_id;sensor_type;location;lat;lon;timestamp;pressure;altitude;pressure_sealevel;temperature;humidity
72612;BME280;60655;52.182;4.474;2022-10-16T00:00:37;100919.34;;;14.65;73.28
72612;BME280;60655;52.182;4.474;2022-10-16T00:02:38;100923.41;;;14.68;73.25
72612;BME280;60655;52.182;4.474;2022-10-16T00:04:39;100910.31;;;14.55;73.85
72612;BME280;60655;52.182;4.474;2022-10-16T00:06:40;100911.72;;;14.74;73.28
72612;BME280;60655;52.182;4.474;2022-10-16T00:08:41;100907.59;;;14.66;73.58
72612;BME280;60655;52.182;4.474;2022-10-16T00:10:42;100919.44;;;14.70;73.30
72612;BME280;60655;52.182;4.474;2022-10-16T00:12:43;100917.63;;;14.76;73.21
72612;BME280;60655;52.182;4.474;2022-10-16T00:14:44;100892.56;;;14.48;73.09
72612;BME280;60655;52.182;4.474;2022-10-16T00:16:45;100926.31;;;14.66;73.17
72612;BME280;60655;52.182;4.474;2022-10-16T00:18:47;100907.31;;;14.51;73.28
72612;BME280;60655;52.182;4.474;2022-10-16T00:20:48;100932.63;;;14.60;73.49
72612;BME280;60655;52.182;4.474;2022-10-16T00:22:49;100911.91;;;14.67;72.80
72612;BME280;60655;52.182;4.474;2022-10-16T00:24:50;100931.47;;;14.56;73.68
72612;BME280;60655;52.182;4.474;2022-10-16T00:26:51;100924.28;;;14.73;72.60
72612;BME280;60655;52.182;4.474;2022-10-16T00:28:52;100903.91;;;14.56;73.14
72612;BME280;60655;52.182;4.474;2022-10-16T00:30:53;100918.00;;;14.51;73.94
72612;BME280;60655;52.182;4.474;2022-10-16T00:32:55;100901.50;;;14.54;73.61
72612;BME280;60655;52.182;4.474;2022-10-16T00:34:56;100912.84;;;14.61;73.30
72612;BME280;60655;52.182;4.474;2022-10-16T00:36:57;100905.88;;;14.60;73.18
72612;BME280;60655;52.182;4.474;2022-10-16T00:38:58;100905.44;;;14.51;74.04
72612;BME280;60655;52.182;4.474;2022-10-16T00:41:01;100913.50;;;14.68;73.25
72612;BME280;60655;52.182;4.474;2022-10-16T00:43:02;100917.25;;;14.67;72.57
72612;BME280;60655;52.182;4.474;2022-10-16T00:45:04;100905.59;;;14.45;73.77
72612;BME280;60655;52.182;4.474;2022-10-16T00:47:07;100900.81;;;14.47;73.66
72612;BME280;60655;52.182;4.474;2022-10-16T00:49:11;100890.59;;;14.44;73.51
72612;BME280;60655;52.182;4.474;2022-10-16T00:51:13;100904.06;;;14.49;73.46
72612;BME280;60655;52.182;4.474;2022-10-16T00:53:17;100915.09;;;14.52;74.08
72612;BME280;60655;52.182;4.474;2022-10-16T00:55:19;100927.16;;;14.55;73.83
72612;BME280;60655;52.182;4.474;2022-10-16T00:57:20;100905.72;;;14.38;73.68
72612;BME280;60655;52.182;4.474;2022-10-16T00:59:31;100909.06;;;14.45;74.43
72612;BME280;60655;52.182;4.474;2022-10-16T01:01:32;100929.41;;;14.46;74.23
72612;BME280;60655;52.182;4.474;2022-10-16T01:03:35;100904.81;;;14.33;74.23
72612;BME280;60655;52.182;4.474;2022-10-16T01:05:44;100922.00;;;14.37;74.55
72612;BME280;60655;52.182;4.474;2022-10-16T01:07:56;100934.91;;;14.68;74.17
72612;BME280;60655;52.182;4.474;2022-10-16T01:10:08;100947.69;;;14.66;74.20
72612;BME280;60655;52.182;4.474;2022-10-16T01:12:15;100934.81;;;14.63;74.30
72612;BME280;60655;52.182;4.474;2022-10-16T01:14:26;100934.94;;;14.57;74.54
72612;BME280;60655;52.182;4.474;2022-10-16T01:16:58;100935.84;;;14.62;74.87
72612;BME280;60655;52.182;4.474;2022-10-16T01:19:12;100926.78;;;14.63;74.13
72612;BME280;60655;52.182;4.474;2022-10-16T01:25:39;100930.31;;;14.52;75.35
72612;BME280;60655;52.182;4.474;2022-10-16T01:27:46;100917.91;;;14.46;75.50
72612;BME280;60655;52.182;4.474;2022-10-16T01:30:07;100923.34;;;14.51;75.32
72612;BME280;60655;52.182;4.474;2022-10-16T01:37:06;100892.31;;;14.22;76.42
72612;BME280;60655;52.182;4.474;2022-10-16T01:39:10;100927.41;;;14.53;76.15
72612;BME280;60655;52.182;4.474;2022-10-16T01:41:17;100928.84;;;14.44;76.57
72612;BME280;60655;52.182;4.474;2022-10-16T01:43:25;100921.47;;;14.23;77.09
72612;BME280;60655;52.182;4.474;2022-10-16T01:45:29;100908.53;;;14.32;76.58
72612;BME280;60655;52.182;4.474;2022-10-16T01:47:32;100929.81;;;14.27;77.29
72612;BME280;60655;52.182;4.474;2022-10-16T01:49:36;100938.84;;;14.37;77.09
72612;BME280;60655;52.182;4.474;2022-10-16T01:51:39;100934.19;;;14.44;76.97
72612;BME280;60655;52.182;4.474;2022-10-16T01:53:47;100934.78;;;14.35;77.57
72612;BME280;60655;52.182;4.474;2022-10-16T01:55:50;100918.19;;;14.33;77.25
72612;BME280;60655;52.182;4.474;2022-10-16T01:57:53;100935.72;;;14.29;77.81
72612;BME280;60655;52.182;4.474;2022-10-16T02:00:03;100935.69;;;14.40;77.24
72612;BME280;60655;52.182;4.474;2022-10-16T02:02:07;100943.50;;;14.42;77.43
72612;BME280;60655;52.182;4.474;2022-10-16T02:04:24;100925.38;;;14.32;77.56
72612;BME280;60655;52.182;4.474;2022-10-16T02:06:28;100940.34;;;14.45;77.40
72612;BME280;60655;52.182;4.474;2022-10-16T02:08:30;100946.91;;;14.26;78.02
72612;BME280;60655;52.182;4.474;2022-10-16T02:10:32;100936.91;;;14.21;78.69
72612;BME280;60655;52.182;4.474;2022-10-16T02:12:37;100951.63;;;14.35;78.55
72612;BME280;60655;52.182;4.474;2022-10-16T02:14:40;100948.88;;;14.18;79.07
72612;BME280;60655;52.182;4.474;2022-10-16T02:16:46;100943.53;;;14.18;79.40
72612;BME280;60655;52.182;4.474;2022-10-16T02:18:47;100949.44;;;14.32;78.91
72612;BME280;60655;52.182;4.474;2022-10-16T02:21:19;100944.22;;;14.26;78.72
72612;BME280;60655;52.182;4.474;2022-10-16T02:23:36;100945.50;;;14.23;78.76
72612;BME280;60655;52.182;4.474;2022-10-16T02:25:40;100944.00;;;14.15;79.06
72612;BME280;60655;52.182;4.474;2022-10-16T02:32:24;100955.63;;;14.21;79.05
72612;BME280;60655;52.182;4.474;2022-10-16T02:34:30;100962.34;;;14.24;79.32
72612;BME280;60655;52.182;4.474;2022-10-16T02:36:33;100952.81;;;14.28;78.79
72612;BME280;60655;52.182;4.474;2022-10-16T02:38:37;100950.34;;;14.38;78.39
72612;BME280;60655;52.182;4.474;2022-10-16T02:40:39;100950.84;;;14.23;78.63
72612;BME280;60655;52.182;4.474;2022-10-16T02:42:41;100961.19;;;14.19;79.50
72612;BME280;60655;52.182;4.474;2022-10-16T02:44:42;100968.78;;;14.11;79.47
72612;BME280;60655;52.182;4.474;2022-10-16T02:46:43;100969.59;;;14.11;80.01
72612;BME280;60655;52.182;4.474;2022-10-16T02:48:44;100972.22;;;14.23;79.34
72612;BME280;60655;52.182;4.474;2022-10-16T02:50:46;100968.75;;;14.23;79.43
72612;BME280;60655;52.182;4.474;2022-10-16T02:52:47;100974.72;;;14.01;80.25
72612;BME280;60655;52.182;4.474;2022-10-16T02:54:48;100976.34;;;14.02;80.14
72612;BME280;60655;52.182;4.474;2022-10-16T02:56:49;100955.09;;;13.96;80.25
72612;BME280;60655;52.182;4.474;2022-10-16T02:58:50;100950.47;;;13.91;80.33
72612;BME280;60655;52.182;4.474;2022-10-16T03:00:51;100977.00;;;14.21;79.87
72612;BME280;60655;52.182;4.474;2022-10-16T03:02:52;100961.44;;;14.18;79.69
72612;BME280;60655;52.182;4.474;2022-10-16T03:04:53;100967.16;;;14.10;80.21
72612;BME280;60655;52.182;4.474;2022-10-16T03:06:54;100967.50;;;14.13;80.06
72612;BME280;60655;52.182;4.474;2022-10-16T03:08:55;100957.88;;;14.01;80.23
72612;BME280;60655;52.182;4.474;2022-10-16T03:10:57;100965.31;;;14.10;80.11
72612;BME280;60655;52.182;4.474;2022-10-16T03:12:58;100963.16;;;14.24;79.42
72612;BME280;60655;52.182;4.474;2022-10-16T03:14:59;100958.91;;;14.11;79.72
72612;BME280;60655;52.182;4.474;2022-10-16T03:17:00;100951.72;;;14.12;79.45
72612;BME280;60655;52.182;4.474;2022-10-16T03:19:01;100952.66;;;14.06;79.99
72612;BME280;60655;52.182;4.474;2022-10-16T03:21:02;100972.13;;;14.18;80.25
72612;BME280;60655;52.182;4.474;2022-10-16T03:23:03;100938.97;;;13.91;80.62
72612;BME280;60655;52.182;4.474;2022-10-16T03:25:04;100967.13;;;14.22;79.69
72612;BME280;60655;52.182;4.474;2022-10-16T03:27:06;100983.44;;;14.08;80.67
72612;BME280;60655;52.182;4.474;2022-10-16T03:29:07;100981.81;;;14.07;80.48
72612;BME280;60655;52.182;4.474;2022-10-16T03:31:08;100980.53;;;14.10;80.26
72612;BME280;60655;52.182;4.474;2022-10-16T03:33:09;100987.03;;;14.02;81.17
72612;BME280;60655;52.182;4.474;2022-10-16T03:35:10;100990.41;;;14.09;80.58
72612;BME280;60655;52.182;4.474;2022-10-16T03:37:11;100981.34;;;14.10;80.64
72612;BME280;60655;52.182;4.474;2022-10-16T03:39:12;100993.31;;;14.08;80.89
72612;BME280;60655;52.182;4.474;2022-10-16T03:41:14;100994.56;;;14.05;81.09
72612;BME280;60655;52.182;4.474;2022-10-16T03:43:15;100996.97;;;14.18;80.37
72612;BME280;60655;52.182;4.474;2022-10-16T03:45:16;100999.50;;;14.37;79.62
72612;BME280;60655;52.182;4.474;2022-10-16T03:47:17;100990.59;;;14.19;80.20
72612;BME280;60655;52.182;4.474;2022-10-16T03:49:22;100995.09;;;14.31;79.77
72612;BME280;60655;52.182;4.474;2022-10-16T03:51:23;100964.28;;;14.00;80.42
72612;BME280;60655;52.182;4.474;2022-10-16T03:53:25;101005.38;;;14.10;80.91
72612;BME280;60655;52.182;4.474;2022-10-16T03:55:26;101011.78;;;14.09;81.34
72612;BME280;60655;52.182;4.474;2022-10-16T03:57:28;101009.63;;;14.23;80.62
72612;BME280;60655;52.182;4.474;2022-10-16T03:59:28;101012.88;;;14.25;80.54
72612;BME280;60655;52.182;4.474;2022-10-16T04:01:30;101006.03;;;14.17;80.47
72612;BME280;60655;52.182;4.474;2022-10-16T04:03:31;101014.63;;;14.19;80.87
72612;BME280;60655;52.182;4.474;2022-10-16T04:05:32;101012.59;;;14.10;81.21
72612;BME280;60655;52.182;4.474;2022-10-16T04:07:33;101012.13;;;14.01;81.13
72612;BME280;60655;52.182;4.474;2022-10-16T04:09:33;101024.97;;;14.16;80.95
72612;BME280;60655;52.182;4.474;2022-10-16T04:11:34;101020.13;;;14.13;81.61
72612;BME280;60655;52.182;4.474;2022-10-16T04:13:36;101014.66;;;14.08;82.05
72612;BME280;60655;52.182;4.474;2022-10-16T04:15:37;101021.19;;;14.12;82.07
72612;BME280;60655;52.182;4.474;2022-10-16T04:17:38;101030.94;;;14.06;82.04
72612;BME280;60655;52.182;4.474;2022-10-16T04:19:39;101006.19;;;13.88;82.46
72612;BME280;60655;52.182;4.474;2022-10-16T04:21:40;101028.69;;;14.15;81.69
72612;BME280;60655;52.182;4.474;2022-10-16T04:23:42;101030.78;;;14.25;81.32
72612;BME280;60655;52.182;4.474;2022-10-16T04:25:42;101033.81;;;14.16;82.24
72612;BME280;60655;52.182;4.474;2022-10-16T04:27:43;101042.78;;;14.10;82.20
72612;BME280;60655;52.182;4.474;2022-10-16T04:29:44;101048.44;;;14.26;81.63
72612;BME280;60655;52.182;4.474;2022-10-16T04:31:46;101048.56;;;14.31;81.19
72612;BME280;60655;52.182;4.474;2022-10-16T04:33:47;101046.69;;;14.31;80.71
72612;BME280;60655;52.182;4.474;2022-10-16T04:35:48;101057.25;;;14.38;80.80
72612;BME280;60655;52.182;4.474;2022-10-16T04:37:49;101059.47;;;14.29;81.32
72612;BME280;60655;52.182;4.474;2022-10-16T04:39:51;101059.81;;;14.33;81.03
72612;BME280;60655;52.182;4.474;2022-10-16T04:41:52;101065.06;;;14.28;81.24
72612;BME280;60655;52.182;4.474;2022-10-16T04:43:53;101077.94;;;14.19;82.38
72612;BME280;60655;52.182;4.474;2022-10-16T04:45:54;101068.00;;;14.14;82.68
72612;BME280;60655;52.182;4.474;2022-10-16T04:47:59;101079.94;;;14.12;83.41
72612;BME280;60655;52.182;4.474;2022-10-16T04:50:00;101082.03;;;14.10;83.33
72612;BME280;60655;52.182;4.474;2022-10-16T04:52:03;101085.28;;;14.24;83.01
72612;BME280;60655;52.182;4.474;2022-10-16T04:54:04;101083.75;;;14.16;83.20
72612;BME280;60655;52.182;4.474;2022-10-16T04:56:05;101089.22;;;14.21;83.15
72612;BME280;60655;52.182;4.474;2022-10-16T04:58:06;101091.66;;;14.23;83.12
72612;BME280;60655;52.182;4.474;2022-10-16T05:00:07;101071.59;;;14.08;83.28
72612;BME280;60655;52.182;4.474;2022-10-16T05:02:08;101099.91;;;14.21;83.71
72612;BME280;60655;52.182;4.474;2022-10-16T05:04:10;101087.72;;;14.02;84.54
72612;BME280;60655;52.182;4.474;2022-10-16T05:06:11;101092.84;;;14.03;84.71
72612;BME280;60655;52.182;4.474;2022-10-16T05:08:14;101101.78;;;14.09;84.31
72612;BME280;60655;52.182;4.474;2022-10-16T05:10:18;101095.97;;;14.24;83.53
72612;BME280;60655;52.182;4.474;2022-10-16T05:12:18;101089.22;;;13.86;85.76
72612;BME280;60655;52.182;4.474;2022-10-16T05:14:19;101113.03;;;13.88;85.98
72612;BME280;60655;52.182;4.474;2022-10-16T05:16:22;101111.88;;;13.95;85.55
72612;BME280;60655;52.182;4.474;2022-10-16T05:18:23;101111.88;;;13.95;85.70
72612;BME280;60655;52.182;4.474;2022-10-16T05:20:24;101115.84;;;14.04;85.27
72612;BME280;60655;52.182;4.474;2022-10-16T05:22:25;101121.75;;;13.95;85.75
72612;BME280;60655;52.182;4.474;2022-10-16T05:24:26;101109.88;;;13.91;85.63
72612;BME280;60655;52.182;4.474;2022-10-16T05:26:27;101127.91;;;13.83;86.30
72612;BME280;60655;52.182;4.474;2022-10-16T05:28:29;101121.53;;;13.84;86.27
72612;BME280;60655;52.182;4.474;2022-10-16T05:30:30;101124.19;;;13.84;86.41
72612;BME280;60655;52.182;4.474;2022-10-16T05:32:31;101132.75;;;13.75;87.24
72612;BME280;60655;52.182;4.474;2022-10-16T05:34:32;101141.34;;;13.77;86.94
72612;BME280;60655;52.182;4.474;2022-10-16T05:36:33;101143.06;;;13.71;88.00
72612;BME280;60655;52.182;4.474;2022-10-16T05:38:35;101147.47;;;13.66;89.18
72612;BME280;60655;52.182;4.474;2022-10-16T05:40:36;101147.91;;;13.51;90.45
72612;BME280;60655;52.182;4.474;2022-10-16T05:42:37;101140.81;;;13.45;91.10
72612;BME280;60655;52.182;4.474;2022-10-16T05:44:38;101136.72;;;13.42;91.12
72612;BME280;60655;52.182;4.474;2022-10-16T05:46:39;101154.16;;;13.45;91.29
72612;BME280;60655;52.182;4.474;2022-10-16T05:48:40;101149.91;;;13.56;90.91
72612;BME280;60655;52.182;4.474;2022-10-16T05:50:41;101138.72;;;13.47;91.22
72612;BME280;60655;52.182;4.474;2022-10-16T05:52:42;101127.81;;;13.48;91.15
72612;BME280;60655;52.182;4.474;2022-10-16T05:54:43;101138.28;;;13.62;90.74
72612;BME280;60655;52.182;4.474;2022-10-16T05:56:44;101142.44;;;13.58;90.80
72612;BME280;60655;52.182;4.474;2022-10-16T05:58:45;101153.50;;;13.61;90.72
72612;BME280;60655;52.182;4.474;2022-10-16T06:00:54;101145.94;;;13.58;90.28
72612;BME280;60655;52.182;4.474;2022-10-16T06:02:55;101152.81;;;13.66;90.11
72612;BME280;60655;52.182;4.474;2022-10-16T06:04:56;101153.84;;;13.53;90.53
72612;BME280;60655;52.182;4.474;2022-10-16T06:07:00;101154.44;;;13.55;90.74
72612;BME280;60655;52.182;4.474;2022-10-16T06:09:02;101147.31;;;13.49;90.52
72612;BME280;60655;52.182;4.474;2022-10-16T06:11:08;101163.19;;;13.44;90.63
72612;BME280;60655;52.182;4.474;2022-10-16T06:13:10;101160.75;;;13.42;90.88
72612;BME280;60655;52.182;4.474;2022-10-16T06:15:11;101152.75;;;13.42;90.93
72612;BME280;60655;52.182;4.474;2022-10-16T06:17:13;101142.72;;;13.26;90.48
72612;BME280;60655;52.182;4.474;2022-10-16T06:19:14;101161.38;;;13.56;90.04
72612;BME280;60655;52.182;4.474;2022-10-16T06:21:19;101174.25;;;13.59;89.37
72612;BME280;60655;52.182;4.474;2022-10-16T06:23:20;101171.81;;;13.58;89.44
72612;BME280;60655;52.182;4.474;2022-10-16T06:25:21;101185.97;;;13.58;89.69
72612;BME280;60655;52.182;4.474;2022-10-16T06:27:22;101192.72;;;13.61;89.76
72612;BME280;60655;52.182;4.474;2022-10-16T06:29:23;101191.06;;;13.48;90.52
72612;BME280;60655;52.182;4.474;2022-10-16T06:31:25;101177.34;;;13.44;89.95
72612;BME280;60655;52.182;4.474;2022-10-16T06:33:28;101179.28;;;13.37;90.20
72612;BME280;60655;52.182;4.474;2022-10-16T06:35:29;101200.34;;;13.57;89.29
72612;BME280;60655;52.182;4.474;2022-10-16T06:37:32;101191.38;;;13.70;88.66
72612;BME280;60655;52.182;4.474;2022-10-16T06:39:33;101184.25;;;13.64;88.31
72612;BME280;60655;52.182;4.474;2022-10-16T06:41:34;101199.69;;;13.62;88.38
72612;BME280;60655;52.182;4.474;2022-10-16T06:43:37;101197.00;;;13.62;88.23
72612;BME280;60655;52.182;4.474;2022-10-16T06:45:38;101201.44;;;13.68;88.14
72612;BME280;60655;52.182;4.474;2022-10-16T06:47:39;101209.97;;;13.76;87.43
72612;BME280;60655;52.182;4.474;2022-10-16T06:49:40;101184.63;;;13.37;88.15
72612;BME280;60655;52.182;4.474;2022-10-16T06:51:41;101213.16;;;13.55;88.61
72612;BME280;60655;52.182;4.474;2022-10-16T06:53:45;101196.63;;;13.46;88.21
72612;BME280;60655;52.182;4.474;2022-10-16T06:55:46;101206.25;;;13.47;88.24
72612;BME280;60655;52.182;4.474;2022-10-16T06:57:47;101220.41;;;13.48;88.56
72612;BME280;60655;52.182;4.474;2022-10-16T06:59:49;101216.66;;;13.37;88.75
72612;BME280;60655;52.182;4.474;2022-10-16T07:01:50;101213.44;;;13.47;88.12
72612;BME280;60655;52.182;4.474;2022-10-16T07:03:51;101233.94;;;13.65;87.91
72612;BME280;60655;52.182;4.474;2022-10-16T07:05:52;101241.09;;;13.52;88.12
72612;BME280;60655;52.182;4.474;2022-10-16T07:07:53;101241.59;;;13.61;87.76
72612;BME280;60655;52.182;4.474;2022-10-16T07:09:54;101253.06;;;13.62;88.00
72612;BME280;60655;52.182;4.474;2022-10-16T07:11:55;101260.28;;;13.61;88.04
72612;BME280;60655;52.182;4.474;2022-10-16T07:13:57;101252.97;;;13.57;88.12
72612;BME280;60655;52.182;4.474;2022-10-16T07:15:58;101254.94;;;13.61;88.85
72612;BME280;60655;52.182;4.474;2022-10-16T07:17:59;101255.63;;;13.57;88.73
72612;BME280;60655;52.182;4.474;2022-10-16T07:20:00;101263.97;;;13.60;88.40
72612;BME280;60655;52.182;4.474;2022-10-16T07:22:01;101283.03;;;13.64;89.04
72612;BME280;60655;52.182;4.474;2022-10-16T07:24:07;101262.69;;;13.51;88.92
72612;BME280;60655;52.182;4.474;2022-10-16T07:26:11;101284.88;;;13.63;89.63
72612;BME280;60655;52.182;4.474;2022-10-16T07:28:12;101290.38;;;13.68;88.43
72612;BME280;60655;52.182;4.474;2022-10-16T07:30:13;101269.19;;;13.55;88.37
72612;BME280;60655;52.182;4.474;2022-10-16T07:32:14;101304.38;;;13.82;88.52
72612;BME280;60655;52.182;4.474;2022-10-16T07:34:17;101304.16;;;13.65;88.80
72612;BME280;60655;52.182;4.474;2022-10-16T07:36:20;101321.88;;;13.78;88.29
72612;BME280;60655;52.182;4.474;2022-10-16T07:38:21;101310.31;;;13.66;88.55
72612;BME280;60655;52.182;4.474;2022-10-16T07:40:22;101303.28;;;13.71;88.42
72612;BME280;60655;52.182;4.474;2022-10-16T07:42:23;101321.09;;;13.89;87.23
72612;BME280;60655;52.182;4.474;2022-10-16T07:44:24;101321.09;;;13.89;87.33
72612;BME280;60655;52.182;4.474;2022-10-16T07:46:26;101332.06;;;13.69;90.04
72612;BME280;60655;52.182;4.474;2022-10-16T07:48:29;101327.44;;;13.76;89.41
72612;BME280;60655;52.182;4.474;2022-10-16T07:50:30;101322.13;;;13.76;89.63
72612;BME280;60655;52.182;4.474;2022-10-16T07:52:31;101312.97;;;13.84;88.39
72612;BME280;60655;52.182;4.474;2022-10-16T07:54:32;101345.25;;;13.82;89.53
72612;BME280;60655;52.182;4.474;2022-10-16T07:56:33;101337.28;;;13.94;88.14
72612;BME280;60655;52.182;4.474;2022-10-16T07:58:35;101359.66;;;14.11;87.75
72612;BME280;60655;52.182;4.474;2022-10-16T08:00:39;101360.56;;;14.05;88.49
72612;BME280;60655;52.182;4.474;2022-10-16T08:02:40;101364.28;;;14.04;89.35
72612;BME280;60655;52.182;4.474;2022-10-16T08:04:41;101367.84;;;14.28;87.80
72612;BME280;60655;52.182;4.474;2022-10-16T08:06:42;101364.94;;;14.30;87.42
72612;BME280;60655;52.182;4.474;2022-10-16T08:08:43;101354.47;;;14.28;87.61
72612;BME280;60655;52.182;4.474;2022-10-16T08:10:44;101374.81;;;14.29;87.48
72612;BME280;60655;52.182;4.474;2022-10-16T08:12:47;101376.91;;;14.27;87.89
72612;BME280;60655;52.182;4.474;2022-10-16T08:14:48;101381.78;;;14.30;87.36
72612;BME280;60655;52.182;4.474;2022-10-16T08:16:49;101379.28;;;14.17;88.65
72612;BME280;60655;52.182;4.474;2022-10-16T08:18:50;101374.53;;;14.19;89.18
72612;BME280;60655;52.182;4.474;2022-10-16T08:20:59;101373.56;;;14.32;87.63
72612;BME280;60655;52.182;4.474;2022-10-16T08:23:01;101365.44;;;14.38;87.15
72612;BME280;60655;52.182;4.474;2022-10-16T08:25:02;101368.22;;;14.32;87.72
72612;BME280;60655;52.182;4.474;2022-10-16T08:27:03;101384.06;;;14.45;86.26
72612;BME280;60655;52.182;4.474;2022-10-16T08:29:04;101392.94;;;14.57;86.48
72612;BME280;60655;52.182;4.474;2022-10-16T08:31:11;101395.25;;;14.42;87.78
72612;BME280;60655;52.182;4.474;2022-10-16T08:33:12;101395.50;;;14.52;87.86
72612;BME280;60655;52.182;4.474;2022-10-16T08:35:14;101397.03;;;14.60;87.54
72612;BME280;60655;52.182;4.474;2022-10-16T08:37:15;101395.09;;;14.78;86.16
72612;BME280;60655;52.182;4.474;2022-10-16T08:39:16;101403.25;;;14.83;85.35
72612;BME280;60655;52.182;4.474;2022-10-16T08:48:36;101424.22;;;14.98;85.73
72612;BME280;60655;52.182;4.474;2022-10-16T08:50:42;101430.25;;;15.05;85.39
72612;BME280;60655;52.182;4.474;2022-10-16T08:52:44;101430.47;;;15.04;84.63
72612;BME280;60655;52.182;4.474;2022-10-16T08:54:55;101440.94;;;15.05;85.62
72612;BME280;60655;52.182;4.474;2022-10-16T08:57:04;101444.22;;;15.07;84.47
72612;BME280;60655;52.182;4.474;2022-10-16T08:59:10;101445.88;;;15.20;86.55
72612;BME280;60655;52.182;4.474;2022-10-16T09:01:16;101421.78;;;15.20;82.90
72612;BME280;60655;52.182;4.474;2022-10-16T09:03:27;101455.75;;;15.31;84.63
72612;BME280;60655;52.182;4.474;2022-10-16T09:08:15;101457.63;;;15.42;83.83
72612;BME280;60655;52.182;4.474;2022-10-16T09:17:59;101468.59;;;15.64;80.24
72612;BME280;60655;52.182;4.474;2022-10-16T09:22:14;101476.41;;;15.66;82.27
72612;BME280;60655;52.182;4.474;2022-10-16T09:24:19;101470.09;;;15.72;81.10
72612;BME280;60655;52.182;4.474;2022-10-16T09:26:21;101464.75;;;15.83;80.44
72612;BME280;60655;52.182;4.474;2022-10-16T09:28:22;101469.88;;;15.85;81.19
72612;BME280;60655;52.182;4.474;2022-10-16T09:30:26;101471.16;;;15.82;79.75
72612;BME280;60655;52.182;4.474;2022-10-16T09:32:28;101469.97;;;15.90;79.19
72612;BME280;60655;52.182;4.474;2022-10-16T09:34:35;101464.88;;;15.77;80.45
72612;BME280;60655;52.182;4.474;2022-10-16T09:36:43;101481.16;;;15.87;78.70
72612;BME280;60655;52.182;4.474;2022-10-16T09:38:45;101479.50;;;15.98;80.47
72612;BME280;60655;52.182;4.474;2022-10-16T09:40:46;101478.72;;;15.85;79.87
72612;BME280;60655;52.182;4.474;2022-10-16T09:42:47;101478.69;;;15.97;80.86
72612;BME280;60655;52.182;4.474;2022-10-16T09:44:50;101467.06;;;15.80;78.44
72612;BME280;60655;52.182;4.474;2022-10-16T09:47:05;101476.00;;;15.97;77.89
72612;BME280;60655;52.182;4.474;2022-10-16T09:49:24;101479.28;;;15.99;78.93
72612;BME280;60655;52.182;4.474;2022-10-16T09:51:33;101479.84;;;15.90;80.56
72612;BME280;60655;52.182;4.474;2022-10-16T09:53:43;101480.66;;;16.02;79.71
72612;BME280;60655;52.182;4.474;2022-10-16T09:55:49;101457.25;;;15.97;77.55
72612;BME280;60655;52.182;4.474;2022-10-16T09:57:54;101464.28;;;15.86;77.22
72612;BME280;60655;52.182;4.474;2022-10-16T09:59:57;101497.22;;;15.99;75.59
72612;BME280;60655;52.182;4.474;2022-10-16T10:02:03;101485.78;;;16.03;77.88
72612;BME280;60655;52.182;4.474;2022-10-16T10:04:05;101485.78;;;16.03;77.28
72612;BME280;60655;52.182;4.474;2022-10-16T10:06:16;101478.16;;;16.24;75.98
72612;BME280;60655;52.182;4.474;2022-10-16T10:08:19;101482.44;;;16.36;73.41
72612;BME280;60655;52.182;4.474;2022-10-16T10:10:23;101472.09;;;16.28;71.22
72612;BME280;60655;52.182;4.474;2022-10-16T10:12:28;101487.00;;;16.24;71.42
72612;BME280;60655;52.182;4.474;2022-10-16T10:14:37;101484.81;;;16.21;70.61
72612;BME280;60655;52.182;4.474;2022-10-16T10:16:40;101504.84;;;16.30;73.64
72612;BME280;60655;52.182;4.474;2022-10-16T10:18:41;101500.19;;;16.26;70.44
72612;BME280;60655;52.182;4.474;2022-10-16T10:20:42;101487.31;;;16.11;73.31
72612;BME280;60655;52.182;4.474;2022-10-16T10:22:44;101511.53;;;16.16;73.86
72612;BME280;60655;52.182;4.474;2022-10-16T10:27:15;101526.88;;;16.32;72.36
72612;BME280;60655;52.182;4.474;2022-10-16T10:31:32;101524.63;;;16.41;71.93
72612;BME280;60655;52.182;4.474;2022-10-16T10:36:36;101533.06;;;16.73;67.49
72612;BME280;60655;52.182;4.474;2022-10-16T10:45:16;101533.91;;;16.62;63.65
72612;BME280;60655;52.182;4.474;2022-10-16T10:51:37;101547.97;;;16.40;63.96
72612;BME280;60655;52.182;4.474;2022-10-16T10:54:13;101548.38;;;16.49;61.90
72612;BME280;60655;52.182;4.474;2022-10-16T10:56:50;101548.63;;;16.47;61.25
72612;BME280;60655;52.182;4.474;2022-10-16T11:01:08;101550.06;;;16.78;63.09
72612;BME280;60655;52.182;4.474;2022-10-16T11:03:19;101551.31;;;16.87;61.76
72612;BME280;60655;52.182;4.474;2022-10-16T11:07:42;101554.63;;;16.78;64.69
72612;BME280;60655;52.182;4.474;2022-10-16T11:09:51;101554.38;;;16.79;62.70
72612;BME280;60655;52.182;4.474;2022-10-16T11:12:01;101554.66;;;16.95;64.30
72612;BME280;60655;52.182;4.474;2022-10-16T11:14:14;101545.50;;;16.79;61.96
72612;BME280;60655;52.182;4.474;2022-10-16T11:16:32;101552.38;;;16.86;62.35
72612;BME280;60655;52.182;4.474;2022-10-16T11:19:05;101569.63;;;16.91;59.29
72612;BME280;60655;52.182;4.474;2022-10-16T11:21:13;101552.34;;;16.70;59.98
72612;BME280;60655;52.182;4.474;2022-10-16T11:23:21;101575.56;;;16.64;59.87
72612;BME280;60655;52.182;4.474;2022-10-16T11:25:29;101574.38;;;16.60;59.85
72612;BME280;60655;52.182;4.474;2022-10-16T11:27:44;101569.25;;;16.59;59.54
72612;BME280;60655;52.182;4.474;2022-10-16T11:29:57;101573.47;;;16.95;59.03
72612;BME280;60655;52.182;4.474;2022-10-16T11:32:05;101582.56;;;16.65;61.01
72612;BME280;60655;52.182;4.474;2022-10-16T11:34:36;101578.13;;;16.71;60.01
72612;BME280;60655;52.182;4.474;2022-10-16T11:36:44;101575.50;;;16.76;57.34
72612;BME280;60655;52.182;4.474;2022-10-16T11:38:58;101563.09;;;16.86;59.15
72612;BME280;60655;52.182;4.474;2022-10-16T11:41:15;101580.81;;;16.99;58.82
72612;BME280;60655;52.182;4.474;2022-10-16T11:43:45;101575.66;;;16.98;58.21